Time;durP1;ratioP1;P1;durP2;ratioP2;P2;SDS_P1;SDS_P2;PMS_P1;PMS_P2;Temp;Humidity;BMP_temperature;BMP_pressure;BME280_temperature;BME280_humidity;BME280_pressure;Samples;Min_cycle;Max_cycle;Signal;HPM_P1;HPM_P2
2023/12/13 00:00:41;;;;;;;52.50;27.07;;;8.00;99.90;;;;;;5030337;28;20052;-93
2023/12/13 00:03:06;;;;;;;53.30;25.90;;;8.00;99.90;;;;;;5012452;28;20053;-92
2023/12/13 00:05:32;;;;;;;57.40;28.17;;;8.00;99.90;;;;;;4988177;28;20046;-87
2023/12/13 00:07:58;;;;;;;55.67;27.27;;;8.00;99.90;;;;;;5030538;28;20049;-93
2023/12/13 00:10:23;;;;;;;50.00;26.17;;;8.00;99.90;;;;;;5027608;28;20042;-91
2023/12/13 00:12:49;;;;;;;44.67;25.33;;;8.00;99.90;;;;;;5011348;28;20037;-94
2023/12/13 00:15:15;;;;;;;54.47;26.17;;;8.00;99.90;;;;;;5005346;28;20144;-92
2023/12/13 00:17:41;;;;;;;44.73;23.93;;;8.00;99.90;;;;;;5021317;28;20056;-91
2023/12/13 00:20:07;;;;;;;46.20;25.20;;;8.00;99.90;;;;;;5011399;28;20223;-91
2023/12/13 00:22:33;;;;;;;44.03;24.77;;;8.00;99.90;;;;;;5006994;28;20045;-91
2023/12/13 00:24:59;;;;;;;50.23;24.80;;;8.00;99.90;;;;;;5025811;28;20056;-91
2023/12/13 00:27:24;;;;;;;52.50;26.43;;;8.00;99.90;;;;;;5006368;28;20046;-90
2023/12/13 00:29:50;;;;;;;45.77;25.27;;;8.00;99.90;;;;;;5007664;28;20045;-92
2023/12/13 00:32:16;;;;;;;71.90;29.30;;;8.00;99.90;;;;;;5018899;28;20052;-91
2023/12/13 00:34:41;;;;;;;47.07;23.77;;;8.00;99.90;;;;;;5020811;28;20104;-91
2023/12/13 00:37:07;;;;;;;51.57;26.47;;;8.00;99.90;;;;;;5021757;28;20050;-93
2023/12/13 00:39:33;;;;;;;48.53;25.40;;;8.00;99.90;;;;;;5021095;28;20045;-93
2023/12/13 00:41:58;;;;;;;46.83;25.23;;;8.00;99.90;;;;;;5026749;28;20042;-93
2023/12/13 00:44:24;;;;;;;58.13;28.37;;;8.10;99.90;;;;;;5019544;28;20046;-92
2023/12/13 00:46:49;;;;;;;53.53;26.90;;;8.00;99.90;;;;;;5025790;28;20033;-92
2023/12/13 00:49:15;;;;;;;53.40;25.03;;;8.00;99.90;;;;;;5008002;28;20046;-93
2023/12/13 00:51:41;;;;;;;56.77;27.17;;;8.00;99.90;;;;;;5007037;28;20127;-93
2023/12/13 00:54:06;;;;;;;44.47;24.23;;;8.00;99.90;;;;;;5024136;28;20057;-93
2023/12/13 00:56:33;;;;;;;61.87;26.90;;;8.00;99.90;;;;;;5023846;28;20057;-92
2023/12/13 00:58:59;;;;;;;45.73;24.53;;;8.10;99.90;;;;;;5024112;28;20053;-91
2023/12/13 01:01:25;;;;;;;55.97;26.53;;;8.00;99.90;;;;;;5007574;28;20038;-91
2023/12/13 01:03:51;;;;;;;86.07;30.57;;;8.10;99.90;;;;;;5010901;28;20049;-93
2023/12/13 01:06:16;;;;;;;85.67;32.40;;;8.10;99.90;;;;;;5025082;28;20056;-91
2023/12/13 01:08:42;;;;;;;61.10;30.03;;;8.10;99.90;;;;;;5005180;28;20105;-91
2023/12/13 01:11:09;;;;;;;56.80;29.43;;;8.00;99.90;;;;;;5009057;28;20045;-92
2023/12/13 01:13:35;;;;;;;60.10;30.07;;;8.10;99.90;;;;;;5016601;28;20109;-91
2023/12/13 01:16:01;;;;;;;57.10;29.33;;;8.10;99.90;;;;;;5013879;28;20744;-92
2023/12/13 01:18:26;;;;;;;63.53;30.70;;;8.10;99.90;;;;;;5018465;28;20064;-92
2023/12/13 01:20:52;;;;;;;63.67;31.37;;;8.00;99.90;;;;;;5013450;28;20542;-92
2023/12/13 01:23:18;;;;;;;95.90;38.07;;;8.00;99.90;;;;;;5025489;28;20054;-92
2023/12/13 01:25:43;;;;;;;65.10;31.93;;;8.00;99.90;;;;;;5006341;28;20045;-91
2023/12/13 01:28:09;;;;;;;73.50;34.43;;;8.00;99.90;;;;;;5023004;28;20045;-91
2023/12/13 01:30:35;;;;;;;78.83;35.27;;;8.00;99.90;;;;;;5003945;28;20451;-90
2023/12/13 01:33:00;;;;;;;56.20;31.50;;;8.00;99.90;;;;;;4995375;28;20045;-91
2023/12/13 01:35:26;;;;;;;64.00;32.90;;;7.90;99.90;;;;;;5020478;28;20045;-91
2023/12/13 01:37:52;;;;;;;59.43;31.37;;;8.00;99.90;;;;;;5027464;28;20589;-91
2023/12/13 01:40:17;;;;;;;103.50;37.17;;;7.90;99.90;;;;;;5008996;28;20120;-91
2023/12/13 01:42:44;;;;;;;56.70;30.13;;;7.90;99.90;;;;;;5006164;28;20041;-91
2023/12/13 01:45:10;;;;;;;57.93;31.67;;;7.90;99.90;;;;;;5023287;28;20128;-91
2023/12/13 01:47:36;;;;;;;53.50;29.77;;;7.90;99.90;;;;;;4999843;28;20242;-90
2023/12/13 01:50:03;;;;;;;53.97;30.23;;;7.90;99.90;;;;;;5028736;28;20064;-91
2023/12/13 01:52:29;;;;;;;68.83;34.83;;;7.90;99.90;;;;;;5005410;28;20076;-92
2023/12/13 01:54:55;;;;;;;66.23;34.07;;;7.90;99.90;;;;;;5024713;28;20064;-90
2023/12/13 01:57:21;;;;;;;60.60;32.00;;;7.90;99.90;;;;;;5026917;28;20041;-92
2023/12/13 01:59:46;;;;;;;61.93;34.33;;;7.90;99.90;;;;;;5007038;28;20041;-92
2023/12/13 02:02:12;;;;;;;68.13;34.77;;;7.90;99.90;;;;;;5025806;28;20048;-92
2023/12/13 02:04:38;;;;;;;59.23;32.30;;;7.90;99.90;;;;;;4990324;28;20072;-90
2023/12/13 02:07:05;;;;;;;72.07;34.37;;;7.90;99.90;;;;;;5023127;28;20046;-90
2023/12/13 02:09:30;;;;;;;61.70;32.33;;;7.90;99.90;;;;;;5017504;28;20575;-93
2023/12/13 02:11:57;;;;;;;55.30;30.87;;;7.90;99.90;;;;;;4998554;28;20042;-92
2023/12/13 02:14:25;;;;;;;63.87;33.10;;;7.90;99.90;;;;;;5005321;28;20084;-92
2023/12/13 02:16:53;;;;;;;71.17;34.73;;;7.90;99.90;;;;;;5001926;28;20053;-91
2023/12/13 02:19:18;;;;;;;66.23;32.57;;;7.90;99.90;;;;;;5021535;28;20052;-91
2023/12/13 02:21:44;;;;;;;50.33;28.70;;;7.90;99.90;;;;;;5022057;28;20034;-91
2023/12/13 02:24:10;;;;;;;46.97;27.27;;;7.80;99.90;;;;;;5025538;28;20068;-88
2023/12/13 02:26:40;;;;;;;59.50;30.50;;;7.80;99.90;;;;;;5025330;28;20042;-93
2023/12/13 02:29:07;;;;;;;55.93;29.67;;;7.80;99.90;;;;;;5024449;28;20068;-92
2023/12/13 02:31:34;;;;;;;46.17;26.23;;;7.80;99.90;;;;;;5023748;28;20451;-91
2023/12/13 02:33:59;;;;;;;45.87;26.37;;;7.70;99.90;;;;;;5007290;28;20102;-93
2023/12/13 02:36:25;;;;;;;49.10;27.23;;;7.80;99.90;;;;;;5025876;28;20045;-90
2023/12/13 02:38:51;;;;;;;52.60;28.50;;;7.70;99.90;;;;;;5001534;28;20128;-91
2023/12/13 02:41:16;;;;;;;46.87;26.40;;;7.70;99.90;;;;;;5004737;28;20046;-91
2023/12/13 02:43:42;;;;;;;44.83;25.20;;;7.70;99.90;;;;;;5011294;28;20136;-90
2023/12/13 02:46:08;;;;;;;41.17;25.37;;;7.70;99.90;;;;;;5000595;28;20108;-92
2023/12/13 02:48:33;;;;;;;48.33;26.20;;;7.70;99.90;;;;;;5017440;28;20056;-89
2023/12/13 02:50:59;;;;;;;43.97;24.53;;;7.70;99.90;;;;;;4993125;28;20041;-90
2023/12/13 02:53:25;;;;;;;42.93;24.67;;;7.70;99.90;;;;;;5004813;28;20092;-91
2023/12/13 02:55:50;;;;;;;42.87;24.23;;;7.70;99.90;;;;;;5019129;28;20048;-91
2023/12/13 02:58:16;;;;;;;43.73;25.10;;;7.70;99.90;;;;;;5005470;28;20042;-92
2023/12/13 03:00:42;;;;;;;48.43;26.00;;;7.70;99.90;;;;;;5044163;28;20073;-92
2023/12/13 03:03:08;;;;;;;42.57;24.43;;;7.70;99.90;;;;;;5020268;28;20065;-93
2023/12/13 03:05:34;;;;;;;36.23;21.20;;;7.70;99.90;;;;;;4992437;28;20049;-92
2023/12/13 03:07:59;;;;;;;49.47;24.97;;;7.70;99.90;;;;;;5024101;28;20105;-91
2023/12/13 03:10:25;;;;;;;37.07;21.43;;;7.70;99.90;;;;;;5023381;28;20076;-93
2023/12/13 03:12:51;;;;;;;40.20;22.43;;;7.70;99.90;;;;;;5005616;28;20065;-92
2023/12/13 03:15:17;;;;;;;41.13;21.70;;;7.70;99.90;;;;;;5022482;28;20046;-93
2023/12/13 03:17:42;;;;;;;40.73;20.93;;;7.70;99.90;;;;;;5019387;28;20045;-93
2023/12/13 03:20:10;;;;;;;38.80;21.70;;;7.70;99.90;;;;;;5027467;28;20104;-92
2023/12/13 03:22:35;;;;;;;36.83;21.53;;;7.70;99.90;;;;;;5023851;28;20053;-94
2023/12/13 03:25:01;;;;;;;38.07;20.43;;;7.70;99.90;;;;;;5005973;28;20038;-93
2023/12/13 03:27:27;;;;;;;48.37;23.30;;;7.70;99.90;;;;;;5019089;28;20081;-93
2023/12/13 03:29:52;;;;;;;44.13;23.50;;;7.70;99.90;;;;;;5015693;28;20060;-92
2023/12/13 03:32:18;;;;;;;34.90;20.37;;;7.70;99.90;;;;;;5004311;28;20045;-93
2023/12/13 03:34:43;;;;;;;36.10;20.67;;;7.70;99.90;;;;;;5021420;28;20060;-93
2023/12/13 03:37:09;;;;;;;33.73;19.57;;;7.70;99.90;;;;;;5024914;28;20101;-92
2023/12/13 03:39:35;;;;;;;40.10;21.50;;;7.80;99.90;;;;;;5020765;28;20829;-91
2023/12/13 03:42:01;;;;;;;34.03;19.47;;;7.70;99.90;;;;;;5003628;28;20101;-92
2023/12/13 03:44:27;;;;;;;51.63;23.27;;;7.70;99.90;;;;;;5018722;28;20477;-91
2023/12/13 03:46:56;;;;;;;41.57;20.97;;;7.70;99.90;;;;;;5007723;28;20615;-93
2023/12/13 03:49:22;;;;;;;31.27;19.00;;;7.70;99.90;;;;;;5026168;28;20041;-92
2023/12/13 03:51:47;;;;;;;33.43;19.00;;;7.70;99.90;;;;;;5018743;28;20048;-91
2023/12/13 03:54:14;;;;;;;30.53;18.40;;;7.80;99.90;;;;;;5020174;28;20410;-93
2023/12/13 03:56:40;;;;;;;33.73;19.07;;;7.80;99.90;;;;;;5017742;28;20042;-92
2023/12/13 03:59:06;;;;;;;28.50;17.43;;;7.80;99.90;;;;;;5018381;28;20131;-89
2023/12/13 04:01:31;;;;;;;37.90;20.00;;;7.80;99.90;;;;;;5017458;28;20054;-92
2023/12/13 04:03:57;;;;;;;28.63;17.17;;;7.80;99.90;;;;;;4987672;28;20049;-92
2023/12/13 04:06:23;;;;;;;27.13;17.90;;;7.80;99.90;;;;;;5022278;28;20512;-94
2023/12/13 04:08:48;;;;;;;30.30;17.73;;;7.80;99.90;;;;;;5004349;28;20081;-93
2023/12/13 04:11:14;;;;;;;27.93;18.40;;;7.80;99.90;;;;;;5030456;28;20039;-90
2023/12/13 04:13:40;;;;;;;35.37;18.60;;;7.80;99.90;;;;;;5001210;28;20033;-91
2023/12/13 04:16:06;;;;;;;28.37;17.23;;;7.80;99.90;;;;;;5009032;28;20077;-91
2023/12/13 04:18:31;;;;;;;37.90;20.53;;;7.80;99.90;;;;;;5001590;28;20037;-90
2023/12/13 04:20:57;;;;;;;32.97;19.93;;;7.80;99.90;;;;;;5010533;28;20061;-92
2023/12/13 04:23:24;;;;;;;33.90;20.10;;;7.90;99.90;;;;;;5009909;28;20094;-93
2023/12/13 04:25:50;;;;;;;33.23;19.77;;;7.80;99.90;;;;;;5007757;28;20041;-92
2023/12/13 04:28:15;;;;;;;36.00;20.90;;;7.80;99.90;;;;;;5027947;28;20063;-92
2023/12/13 04:30:42;;;;;;;34.53;19.90;;;7.90;99.90;;;;;;5019717;28;20061;-91
2023/12/13 04:33:07;;;;;;;40.10;21.60;;;7.90;99.90;;;;;;5022542;28;20038;-91
2023/12/13 04:35:33;;;;;;;34.93;20.70;;;7.90;99.90;;;;;;5006014;28;20056;-90
2023/12/13 04:37:59;;;;;;;34.30;19.47;;;7.90;99.90;;;;;;5024968;28;20052;-90
2023/12/13 04:40:25;;;;;;;31.70;20.60;;;7.90;99.90;;;;;;5008013;28;20034;-91
2023/12/13 04:42:51;;;;;;;35.03;20.37;;;7.90;99.90;;;;;;5002791;28;20250;-92
2023/12/13 04:45:16;;;;;;;39.93;21.53;;;7.90;99.90;;;;;;5030026;28;20071;-94
2023/12/13 04:47:42;;;;;;;35.37;21.47;;;7.90;99.90;;;;;;5027466;28;20057;-92
2023/12/13 04:50:09;;;;;;;47.43;23.67;;;7.90;99.90;;;;;;5028293;28;20065;-92
2023/12/13 04:52:35;;;;;;;34.83;20.03;;;7.90;99.90;;;;;;5028587;28;20042;-92
2023/12/13 04:55:01;;;;;;;35.20;20.80;;;7.90;99.90;;;;;;5004064;28;20058;-93
2023/12/13 04:57:27;;;;;;;37.67;22.03;;;7.90;99.90;;;;;;5012939;28;20049;-85
2023/12/13 04:59:53;;;;;;;42.80;23.53;;;7.90;99.90;;;;;;5000763;28;20038;-93
2023/12/13 05:02:19;;;;;;;44.60;23.77;;;7.90;99.90;;;;;;5020507;28;20045;-89
2023/12/13 05:04:45;;;;;;;36.17;21.37;;;7.90;99.90;;;;;;5022991;28;20042;-93
2023/12/13 05:07:11;;;;;;;38.67;22.57;;;7.90;99.90;;;;;;5011936;28;20089;-93
2023/12/13 05:09:37;;;;;;;43.00;23.57;;;7.90;99.90;;;;;;5008429;28;20042;-93
2023/12/13 05:12:03;;;;;;;45.87;23.90;;;7.90;99.90;;;;;;5008682;28;20102;-92
2023/12/13 05:14:28;;;;;;;36.57;22.13;;;7.90;99.90;;;;;;4994938;28;20041;-94
2023/12/13 05:16:54;;;;;;;44.37;24.27;;;7.90;99.90;;;;;;5019129;28;20073;-92
2023/12/13 05:19:20;;;;;;;40.43;24.33;;;7.90;99.90;;;;;;5010341;28;20093;-94
2023/12/13 05:21:46;;;;;;;46.23;25.53;;;7.90;99.90;;;;;;5021891;28;20084;-94
2023/12/13 05:24:12;;;;;;;35.90;22.97;;;7.90;99.90;;;;;;5017576;28;20041;-93
2023/12/13 05:26:37;;;;;;;38.70;23.27;;;7.90;99.90;;;;;;5012313;28;20057;-93
2023/12/13 05:29:03;;;;;;;45.83;25.57;;;7.90;99.90;;;;;;5029060;28;20136;-94
2023/12/13 05:31:29;;;;;;;36.57;22.43;;;7.90;99.90;;;;;;5025061;28;20049;-92
2023/12/13 05:33:54;;;;;;;34.93;21.80;;;7.90;99.90;;;;;;5008960;28;20128;-94
2023/12/13 05:36:20;;;;;;;46.93;26.03;;;7.90;99.90;;;;;;5025283;28;20048;-95
2023/12/13 05:38:46;;;;;;;39.30;24.13;;;7.90;99.90;;;;;;5008893;28;20076;-94
2023/12/13 05:41:12;;;;;;;37.23;23.10;;;7.90;99.90;;;;;;5034013;28;20041;-93
2023/12/13 05:43:38;;;;;;;41.70;23.90;;;7.90;99.90;;;;;;5006958;28;20070;-95
2023/12/13 05:46:06;;;;;;;47.63;26.50;;;7.90;99.90;;;;;;5023673;28;20042;-94
2023/12/13 05:48:32;;;;;;;49.17;28.00;;;7.90;99.90;;;;;;5020797;28;20038;-92
2023/12/13 05:50:58;;;;;;;43.50;25.80;;;7.90;99.90;;;;;;5011047;28;20056;-92
2023/12/13 05:53:24;;;;;;;45.57;25.57;;;7.90;99.90;;;;;;5025740;28;20046;-93
2023/12/13 05:55:49;;;;;;;33.13;21.77;;;7.90;99.90;;;;;;5021088;28;20091;-93
2023/12/13 05:58:15;;;;;;;45.53;24.77;;;7.90;99.90;;;;;;5005702;28;20033;-83
2023/12/13 06:00:41;;;;;;;57.43;28.40;;;7.90;99.90;;;;;;5005588;28;20049;-79
2023/12/13 06:03:07;;;;;;;50.53;26.60;;;7.90;99.90;;;;;;4993706;28;20149;-92
2023/12/13 06:05:33;;;;;;;44.57;24.90;;;7.90;99.90;;;;;;5023343;28;20128;-82
2023/12/13 06:07:58;;;;;;;39.13;23.47;;;7.90;99.90;;;;;;5005655;28;20057;-93
2023/12/13 06:10:24;;;;;;;41.17;23.93;;;7.90;99.90;;;;;;5028978;28;20052;-92
2023/12/13 06:12:52;;;;;;;37.73;24.13;;;7.90;99.90;;;;;;5003424;28;20045;-92
2023/12/13 06:15:24;;;;;;;43.73;24.40;;;7.90;99.90;;;;;;5010418;28;20050;-92
2023/12/13 06:17:50;;;;;;;42.40;25.20;;;7.90;99.90;;;;;;5028217;28;20370;-93
2023/12/13 06:20:16;;;;;;;37.80;23.30;;;7.90;99.90;;;;;;5016148;28;20041;-94
2023/12/13 06:22:42;;;;;;;34.73;23.07;;;7.90;99.90;;;;;;4983691;28;20068;-92
2023/12/13 06:25:07;;;;;;;57.10;29.70;;;7.90;99.90;;;;;;5021328;28;20057;-81
2023/12/13 06:27:33;;;;;;;58.47;32.60;;;7.90;99.90;;;;;;5005035;28;20069;-81
2023/12/13 06:29:59;;;;;;;100.17;49.73;;;7.90;99.90;;;;;;5001345;28;20049;-81
2023/12/13 06:32:25;;;;;;;56.30;30.77;;;7.90;99.90;;;;;;5006987;28;20044;-81
2023/12/13 06:34:51;;;;;;;51.10;28.30;;;7.90;99.90;;;;;;5003019;28;20052;-82
2023/12/13 06:37:16;;;;;;;52.37;27.70;;;7.90;99.90;;;;;;5015235;28;20137;-81
2023/12/13 06:39:42;;;;;;;55.90;29.50;;;7.90;99.90;;;;;;5017174;28;20040;-81
2023/12/13 06:42:08;;;;;;;42.23;24.70;;;7.90;99.90;;;;;;5017761;28;20180;-80
2023/12/13 06:44:38;;;;;;;42.70;27.27;;;7.90;99.90;;;;;;5027632;28;20042;-80
2023/12/13 06:47:05;;;;;;;47.53;27.90;;;7.90;99.90;;;;;;5014260;28;20057;-81
2023/12/13 06:49:34;;;;;;;44.03;26.17;;;7.90;99.90;;;;;;5023146;28;20061;-86
2023/12/13 06:52:00;;;;;;;51.13;27.63;;;7.80;99.90;;;;;;5012655;28;20049;-83
2023/12/13 06:54:26;;;;;;;51.83;28.37;;;7.90;99.90;;;;;;5021021;28;20099;-86
2023/12/13 06:56:51;;;;;;;41.03;23.70;;;7.90;99.90;;;;;;5019120;28;20053;-86
2023/12/13 06:59:17;;;;;;;46.73;26.37;;;7.90;99.90;;;;;;5023509;28;20042;-89
2023/12/13 07:01:43;;;;;;;42.90;25.43;;;7.90;99.90;;;;;;5024836;28;20045;-89
2023/12/13 07:04:12;;;;;;;49.93;28.63;;;7.90;99.90;;;;;;5024325;28;20054;-89
2023/12/13 07:06:38;;;;;;;42.93;24.67;;;7.90;99.90;;;;;;5003327;28;20065;-90
2023/12/13 07:09:03;;;;;;;37.90;23.63;;;7.90;99.90;;;;;;5006123;28;20046;-89
2023/12/13 07:11:29;;;;;;;40.73;23.90;;;7.90;99.90;;;;;;5027879;28;20507;-90
2023/12/13 07:13:55;;;;;;;40.23;24.93;;;7.90;99.90;;;;;;5027395;28;20049;-90
2023/12/13 07:16:21;;;;;;;36.50;23.30;;;7.90;99.90;;;;;;5025794;28;20079;-89
2023/12/13 07:18:46;;;;;;;52.63;27.43;;;7.90;99.90;;;;;;5004813;28;21032;-89
2023/12/13 07:21:12;;;;;;;38.67;24.13;;;7.90;99.90;;;;;;5022459;28;20049;-83
2023/12/13 07:23:39;;;;;;;44.13;24.93;;;7.90;99.90;;;;;;5023301;28;20048;-89
2023/12/13 07:26:06;;;;;;;32.70;21.20;;;7.90;99.90;;;;;;5009728;28;20047;-91
2023/12/13 07:28:32;;;;;;;37.23;22.83;;;7.90;99.90;;;;;;5027818;28;20077;-89
2023/12/13 07:31:01;;;;;;;40.50;23.33;;;7.90;99.90;;;;;;4992089;28;20124;-89
2023/12/13 07:33:26;;;;;;;34.13;21.73;;;7.90;99.90;;;;;;5011332;28;20046;-89
2023/12/13 07:35:52;;;;;;;38.50;22.57;;;7.90;99.90;;;;;;5020842;28;20538;-89
2023/12/13 07:38:18;;;;;;;35.17;22.60;;;7.90;99.90;;;;;;5026497;28;20065;-88
2023/12/13 07:40:46;;;;;;;42.80;26.87;;;7.90;99.90;;;;;;5017433;28;20038;-90
2023/12/13 07:43:12;;;;;;;42.43;25.57;;;7.90;99.90;;;;;;4998479;28;20104;-91
2023/12/13 07:45:38;;;;;;;39.30;25.97;;;8.00;99.90;;;;;;5002328;28;20045;-91
2023/12/13 07:48:04;;;;;;;40.90;24.57;;;8.00;99.90;;;;;;5015005;28;20049;-91
2023/12/13 07:50:30;;;;;;;36.90;24.47;;;8.00;99.90;;;;;;5020748;28;20336;-90
2023/12/13 07:52:56;;;;;;;41.67;24.80;;;8.00;99.90;;;;;;5022317;28;20049;-84
2023/12/13 07:55:23;;;;;;;36.53;22.50;;;8.00;99.90;;;;;;4986024;28;20053;-79
2023/12/13 07:57:52;;;;;;;35.77;21.97;;;8.00;99.90;;;;;;5011142;28;20045;-87
2023/12/13 08:00:18;;;;;;;32.90;22.53;;;8.00;99.90;;;;;;5021160;28;20050;-87
2023/12/13 08:02:44;;;;;;;37.70;23.13;;;8.00;99.90;;;;;;5016044;28;20065;-87
2023/12/13 08:05:09;;;;;;;38.90;22.73;;;8.00;99.90;;;;;;5018370;28;20053;-88
2023/12/13 08:07:35;;;;;;;35.27;22.40;;;8.00;99.90;;;;;;5021148;28;20049;-88
2023/12/13 08:10:07;;;;;;;36.27;22.27;;;8.00;99.90;;;;;;5018489;28;20053;-85
2023/12/13 08:12:36;;;;;;;;;;;8.00;99.90;;;;;;5005032;28;20178;-85
2023/12/13 08:15:05;;;;;;;43.53;27.40;;;8.00;99.90;;;;;;5022835;28;20764;-85
2023/12/13 08:17:32;;;;;;;43.13;26.00;;;8.00;99.90;;;;;;5018747;28;20064;-84
2023/12/13 08:19:57;;;;;;;40.70;24.20;;;8.00;99.90;;;;;;5020076;28;20105;-85
2023/12/13 08:22:24;;;;;;;38.43;24.03;;;8.00;99.90;;;;;;5002595;28;20084;-85
2023/12/13 08:24:50;;;;;;;34.87;23.53;;;8.00;99.90;;;;;;5003700;28;20061;-86
2023/12/13 08:27:16;;;;;;;43.23;25.27;;;8.00;99.90;;;;;;5003261;28;20034;-88
2023/12/13 08:29:42;;;;;;;34.33;23.27;;;8.00;99.90;;;;;;5002666;28;20469;-88
2023/12/13 08:32:07;;;;;;;37.93;23.37;;;8.10;99.90;;;;;;5020957;28;20056;-87
2023/12/13 08:34:33;;;;;;;39.63;24.60;;;8.10;99.90;;;;;;5000995;28;20068;-87
2023/12/13 08:37:00;;;;;;;39.17;23.93;;;8.10;99.90;;;;;;5021975;28;20049;-88
2023/12/13 08:39:27;;;;;;;36.30;23.37;;;8.10;99.90;;;;;;5003319;28;20057;-88
2023/12/13 08:41:53;;;;;;;38.33;22.67;;;8.10;99.90;;;;;;5020213;28;20052;-86
2023/12/13 08:44:19;;;;;;;38.43;23.40;;;8.10;99.90;;;;;;5020416;28;20057;-87
2023/12/13 08:46:47;;;;;;;41.07;23.40;;;8.20;99.90;;;;;;5002581;28;20045;-89
2023/12/13 08:49:13;;;;;;;41.47;24.83;;;8.20;99.90;;;;;;5021133;28;20441;-87
2023/12/13 08:51:39;;;;;;;34.03;22.67;;;8.20;99.90;;;;;;4999827;28;20056;-86
2023/12/13 08:54:04;;;;;;;39.53;24.50;;;8.20;99.90;;;;;;5003274;28;20053;-87
2023/12/13 08:56:31;;;;;;;36.70;23.40;;;8.20;99.90;;;;;;5001407;28;20060;-86
2023/12/13 08:58:57;;;;;;;34.07;22.30;;;8.20;99.90;;;;;;5003793;28;20050;-86
2023/12/13 09:01:23;;;;;;;38.37;23.17;;;8.20;99.90;;;;;;5002335;28;20127;-86
2023/12/13 09:03:50;;;;;;;39.50;24.50;;;8.30;99.90;;;;;;5017509;28;20049;-85
2023/12/13 09:06:16;;;;;;;41.90;26.13;;;8.30;99.90;;;;;;5016992;28;20045;-90
2023/12/13 09:08:42;;;;;;;37.40;24.20;;;8.30;99.90;;;;;;4999013;28;20041;-86
2023/12/13 09:11:08;;;;;;;36.40;23.13;;;8.30;99.90;;;;;;5021504;28;20073;-86
2023/12/13 09:13:34;;;;;;;41.07;24.50;;;8.30;99.90;;;;;;4985476;28;20045;-85
2023/12/13 09:16:00;;;;;;;40.23;23.23;;;8.30;99.90;;;;;;5019259;28;20075;-88
2023/12/13 09:18:25;;;;;;;39.73;24.70;;;8.40;99.90;;;;;;5019054;28;21012;-86
2023/12/13 09:20:51;;;;;;;41.03;27.07;;;8.30;99.90;;;;;;5019211;28;20049;-87
2023/12/13 09:23:24;;;;;;;48.83;29.70;;;8.40;99.90;;;;;;5002688;28;20111;-87
2023/12/13 09:25:50;;;;;;;37.63;24.93;;;8.40;99.90;;;;;;5016221;28;20042;-87
2023/12/13 09:28:17;;;;;;;40.43;24.23;;;8.40;99.90;;;;;;5020254;28;20044;-86
2023/12/13 09:30:43;;;;;;;44.30;25.27;;;8.40;99.90;;;;;;5034428;28;20048;-85
2023/12/13 09:33:11;;;;;;;38.43;24.67;;;8.40;99.90;;;;;;5018873;28;20139;-87
2023/12/13 09:35:37;;;;;;;43.13;24.47;;;8.40;99.90;;;;;;5018042;28;20455;-86
2023/12/13 09:38:04;;;;;;;40.03;23.83;;;8.40;99.90;;;;;;5016807;28;20053;-87
2023/12/13 09:40:31;;;;;;;41.43;24.93;;;8.40;99.90;;;;;;5036301;28;20166;-85
2023/12/13 09:42:57;;;;;;;39.40;24.77;;;8.40;99.90;;;;;;5015754;28;20045;-86
2023/12/13 09:45:24;;;;;;;42.47;24.27;;;8.40;99.90;;;;;;5020934;28;20925;-85
2023/12/13 09:47:52;;;;;;;41.70;24.60;;;8.40;99.90;;;;;;5016152;28;20045;-87
2023/12/13 09:50:22;;;;;;;46.90;25.77;;;8.40;99.90;;;;;;5018546;28;20041;-87
2023/12/13 09:52:49;;;;;;;38.80;24.23;;;8.40;99.90;;;;;;5018223;28;20048;-88
2023/12/13 09:55:15;;;;;;;42.27;24.00;;;8.40;99.90;;;;;;5000826;28;20041;-89
2023/12/13 09:57:41;;;;;;;44.63;26.50;;;8.40;99.90;;;;;;5018501;28;20764;-90
2023/12/13 10:00:07;;;;;;;42.13;25.63;;;8.40;99.90;;;;;;5015770;28;20332;-88
2023/12/13 10:02:33;;;;;;;45.50;26.30;;;8.50;99.90;;;;;;5002235;28;20149;-87
2023/12/13 10:04:59;;;;;;;43.80;26.40;;;8.50;99.90;;;;;;5011476;28;20259;-88
2023/12/13 10:07:27;;;;;;;46.43;26.80;;;8.50;99.90;;;;;;5020211;28;20061;-87
2023/12/13 10:09:55;;;;;;;44.83;27.97;;;8.50;99.90;;;;;;5018540;28;20060;-86
2023/12/13 10:12:21;;;;;;;51.70;29.10;;;8.60;99.90;;;;;;5019390;28;20053;-86
2023/12/13 10:14:47;;;;;;;45.70;29.60;;;8.60;99.90;;;;;;5019578;28;20099;-87
2023/12/13 10:17:13;;;;;;;58.83;32.93;;;8.60;99.90;;;;;;4995694;28;20443;-85
2023/12/13 10:19:39;;;;;;;47.87;27.40;;;8.60;99.90;;;;;;5015294;28;20077;-87
2023/12/13 10:22:06;;;;;;;51.17;28.87;;;8.60;99.90;;;;;;5000103;28;20087;-88
2023/12/13 10:24:32;;;;;;;49.00;28.50;;;8.60;99.90;;;;;;5001906;28;20049;-89
2023/12/13 10:26:58;;;;;;;53.57;29.30;;;8.60;99.90;;;;;;5016742;28;20103;-90
2023/12/13 10:29:24;;;;;;;47.30;26.63;;;8.60;99.90;;;;;;4999878;28;20092;-89
2023/12/13 10:31:49;;;;;;;49.43;27.73;;;8.60;99.90;;;;;;5018518;28;20049;-89
2023/12/13 10:34:16;;;;;;;48.13;30.20;;;8.60;99.90;;;;;;4999669;28;20407;-89
2023/12/13 10:36:45;;;;;;;50.70;29.93;;;8.70;99.90;;;;;;5019004;28;20046;-87
2023/12/13 10:39:15;;;;;;;48.27;28.53;;;8.60;99.90;;;;;;5015331;28;20364;-86
2023/12/13 10:41:44;;;;;;;52.47;30.63;;;8.70;99.90;;;;;;5001469;28;20443;-86
2023/12/13 10:44:15;;;;;;;49.93;28.47;;;8.70;99.90;;;;;;5033731;28;20064;-87
2023/12/13 10:46:46;;;;;;;51.87;29.80;;;8.60;99.90;;;;;;5032703;28;20075;-88
2023/12/13 10:49:20;;;;;;;50.90;30.90;;;8.70;99.90;;;;;;5018065;28;20328;-88
2023/12/13 10:51:47;;;;;;;53.03;32.03;;;8.70;99.90;;;;;;5014884;28;20598;-88
2023/12/13 10:54:14;;;;;;;48.97;29.17;;;8.70;99.90;;;;;;5004001;28;20045;-88
2023/12/13 10:56:41;;;;;;;46.57;28.43;;;8.70;99.90;;;;;;5017629;28;20108;-89
2023/12/13 10:59:09;;;;;;;55.90;31.03;;;8.70;99.90;;;;;;5016882;28;20045;-86
2023/12/13 11:01:39;;;;;;;57.27;33.57;;;8.70;99.90;;;;;;4984243;28;20053;-86
2023/12/13 11:04:12;;;;;;;46.23;28.97;;;8.70;99.90;;;;;;5013621;28;20079;-78
2023/12/13 11:06:41;;;;;;;56.37;33.67;;;8.70;99.90;;;;;;5017901;28;20113;-87
2023/12/13 11:09:17;;;;;;;49.30;29.53;;;8.70;99.90;;;;;;5019183;28;20041;-87
2023/12/13 11:11:43;;;;;;;45.77;28.37;;;8.70;99.90;;;;;;5003481;28;20132;-86
2023/12/13 11:14:11;;;;;;;51.23;30.20;;;8.70;99.90;;;;;;5018451;28;20049;-88
2023/12/13 11:16:39;;;;;;;55.37;34.00;;;8.70;99.90;;;;;;5019446;28;20056;-86
2023/12/13 11:19:05;;;;;;;54.57;33.27;;;8.70;99.90;;;;;;5037522;28;20052;-86
2023/12/13 11:21:33;;;;;;;53.47;32.27;;;8.70;99.90;;;;;;5001973;28;20091;-87
2023/12/13 11:24:16;;;;;;;48.40;30.30;;;8.70;99.90;;;;;;5021869;28;20576;-86
2023/12/13 11:26:53;;;;;;;51.77;28.67;;;8.70;99.90;;;;;;5034032;28;20105;-84
2023/12/13 11:29:28;;;;;;;53.60;28.33;;;8.70;99.90;;;;;;5034707;28;20305;-88
2023/12/13 11:32:05;;;;;;;50.87;28.50;;;8.80;99.90;;;;;;5020366;28;20041;-87
2023/12/13 11:34:35;;;;;;;50.23;28.30;;;8.70;99.90;;;;;;5018179;28;20055;-87
2023/12/13 11:37:03;;;;;;;49.63;29.83;;;8.80;99.90;;;;;;5020796;28;21515;-87
2023/12/13 11:39:30;;;;;;;45.67;27.23;;;8.70;99.90;;;;;;5019785;28;20060;-87
2023/12/13 11:41:58;;;;;;;40.87;25.70;;;8.80;99.90;;;;;;5018913;28;20073;-87
2023/12/13 11:44:31;;;;;;;55.30;29.27;;;8.70;99.90;;;;;;5020184;28;20046;-86
2023/12/13 11:47:00;;;;;;;52.07;28.00;;;8.70;99.90;;;;;;5017707;28;20510;-86
2023/12/13 11:49:26;;;;;;;47.87;26.60;;;8.80;99.90;;;;;;5004316;28;20049;-86
2023/12/13 11:51:55;;;;;;;50.77;27.10;;;8.70;99.90;;;;;;5001655;28;20121;-86
2023/12/13 11:54:21;;;;;;;47.40;25.63;;;8.80;99.90;;;;;;5020480;28;20115;-87
2023/12/13 11:56:47;;;;;;;47.57;26.23;;;8.70;99.90;;;;;;5004859;28;20554;-84
2023/12/13 11:59:13;;;;;;;45.13;24.93;;;8.70;99.90;;;;;;5019315;28;20049;-86
2023/12/13 12:01:43;;;;;;;44.27;26.83;;;8.70;99.90;;;;;;5039684;28;20048;-87
2023/12/13 12:04:08;;;;;;;39.77;25.87;;;8.80;99.90;;;;;;5020386;28;20053;-87
2023/12/13 12:06:34;;;;;;;48.57;26.97;;;8.70;99.90;;;;;;5020743;28;20072;-87
2023/12/13 12:09:02;;;;;;;47.40;25.57;;;8.80;99.90;;;;;;5017215;28;20061;-87
2023/12/13 12:11:28;;;;;;;44.43;24.80;;;8.80;99.90;;;;;;5020530;28;20146;-87
2023/12/13 12:13:55;;;;;;;43.77;25.07;;;8.80;99.90;;;;;;5002198;28;20092;-88
2023/12/13 12:16:21;;;;;;;40.00;23.70;;;8.80;99.90;;;;;;5018407;28;20061;-87
2023/12/13 12:18:47;;;;;;;41.37;25.40;;;8.80;99.90;;;;;;5004181;28;20159;-87
2023/12/13 12:21:13;;;;;;;43.60;24.83;;;8.80;99.90;;;;;;4999996;28;20045;-88
2023/12/13 12:23:39;;;;;;;46.23;24.27;;;8.80;99.90;;;;;;5002845;28;20045;-85
2023/12/13 12:26:10;;;;;;;43.40;25.07;;;8.80;99.90;;;;;;5000757;28;20033;-85
2023/12/13 12:28:38;;;;;;;42.47;25.77;;;8.80;99.90;;;;;;5034764;28;20045;-86
2023/12/13 12:31:04;;;;;;;43.87;23.43;;;8.80;99.90;;;;;;5018196;28;20056;-88
2023/12/13 12:33:29;;;;;;;42.97;24.23;;;8.80;99.90;;;;;;5018563;28;20037;-87